createdAt,value
2022-11-23T00:00:04.217Z,0.44
2022-11-23T00:03:06.644Z,0.43
2022-11-23T00:06:08.499Z,0.40
2022-11-23T00:09:11.335Z,0.50
2022-11-23T00:12:13.163Z,0.54
2022-11-23T00:15:15.431Z,0.53
2022-11-23T00:18:17.261Z,0.51
2022-11-23T00:21:19.529Z,0.53
2022-11-23T00:24:21.333Z,0.31
2022-11-23T00:27:23.144Z,0.41
2022-11-23T00:30:24.945Z,0.42
2022-11-23T00:33:27.569Z,0.39
2022-11-23T00:36:29.456Z,0.41
2022-11-23T00:39:34.195Z,0.43
2022-11-23T00:42:38.289Z,0.45
2022-11-23T00:45:40.342Z,0.48
2022-11-23T00:48:48.506Z,0.18
2022-11-23T00:51:50.385Z,0.42
2022-11-23T00:54:53.139Z,0.43
2022-11-23T00:57:55.050Z,0.43
2022-11-23T01:01:06.743Z,0.53
2022-11-23T01:04:10.039Z,0.47
2022-11-23T01:07:11.847Z,0.48
2022-11-23T01:10:15.072Z,0.51
2022-11-23T01:13:16.869Z,0.47
2022-11-23T01:16:24.799Z,0.53
2022-11-23T01:19:26.769Z,0.48
2022-11-23T01:22:28.495Z,0.42
2022-11-23T01:25:30.309Z,0.46
2022-11-23T01:28:33.983Z,0.47
2022-11-23T01:31:35.819Z,0.41
2022-11-23T01:34:37.734Z,0.47
2022-11-23T01:37:39.673Z,0.49
2022-11-23T01:40:44.576Z,0.45
2022-11-23T01:43:46.800Z,0.52
2022-11-23T01:46:48.580Z,0.50
2022-11-23T01:49:52.782Z,0.51
2022-11-23T01:52:55.046Z,0.54
2022-11-23T01:56:00.974Z,0.57
2022-11-23T01:59:07.965Z,0.62
2022-11-23T02:02:09.953Z,0.61
2022-11-23T02:05:11.871Z,0.50
2022-11-23T02:08:16.907Z,0.51
2022-11-23T02:11:19.849Z,0.45
2022-11-23T02:14:23.668Z,0.40
2022-11-23T02:17:29.382Z,0.53
2022-11-23T02:20:31.974Z,0.46
2022-11-23T02:23:59.990Z,0.53
2022-11-23T02:27:03.502Z,0.35
2022-11-23T02:30:05.777Z,0.49
2022-11-23T02:33:07.741Z,0.56
2022-11-23T02:36:46.570Z,0.50
2022-11-23T02:39:53.710Z,0.56
2022-11-23T02:42:55.795Z,0.55
2022-11-23T02:46:01.204Z,0.53
2022-11-23T02:49:03.039Z,0.49
2022-11-23T02:52:05.140Z,0.61
2022-11-23T02:55:07.253Z,0.61
2022-11-23T02:58:09.467Z,0.65
2022-11-23T03:01:11.290Z,0.54
2022-11-23T03:04:13.462Z,0.56
2022-11-23T03:07:15.332Z,0.57
2022-11-23T03:10:18.524Z,0.55
2022-11-23T03:13:22.085Z,0.67
2022-11-23T03:16:24.290Z,0.60
2022-11-23T03:19:26.160Z,0.69
2022-11-23T03:22:28.862Z,0.61
2022-11-23T03:25:31.324Z,0.72
2022-11-23T03:28:33.866Z,0.66
2022-11-23T03:31:35.946Z,0.55
2022-11-23T03:34:40.160Z,0.55
2022-11-23T03:37:42.850Z,0.58
2022-11-23T03:40:46.051Z,0.54
2022-11-23T03:43:54.806Z,0.65
2022-11-23T03:46:57.540Z,0.68
2022-11-23T03:50:01.154Z,0.69
2022-11-23T03:53:06.264Z,0.59
2022-11-23T03:56:08.788Z,0.58
2022-11-23T03:59:16.075Z,0.68
2022-11-23T04:02:17.963Z,0.70
2022-11-23T04:05:32.803Z,0.69
2022-11-23T04:09:00.380Z,0.71
2022-11-23T04:12:20.869Z,0.58
2022-11-23T04:15:22.598Z,0.60
2022-11-23T04:18:24.817Z,0.72
2022-11-23T04:21:27.537Z,0.65
2022-11-23T04:24:29.436Z,0.59
2022-11-23T04:27:34.248Z,0.59
2022-11-23T04:30:36.077Z,0.61
2022-11-23T04:33:37.940Z,0.65
2022-11-23T04:36:40.216Z,0.59
2022-11-23T04:39:43.579Z,0.65
2022-11-23T04:43:00.217Z,0.60
2022-11-23T04:46:04.775Z,0.58
2022-11-23T04:49:09.228Z,0.58
2022-11-23T04:52:12.550Z,0.64
2022-11-23T04:55:20.364Z,0.60
2022-11-23T04:58:34.490Z,0.51
2022-11-23T05:01:37.195Z,0.54
2022-11-23T05:05:14.184Z,0.54
2022-11-23T05:08:17.443Z,0.62
2022-11-23T05:11:42.452Z,0.41
2022-11-23T05:14:45.784Z,0.50
2022-11-23T05:17:57.737Z,0.37
2022-11-23T05:21:01.187Z,0.39
2022-11-23T05:24:04.232Z,0.23
2022-11-23T05:27:06.431Z,0.32
2022-11-23T05:30:09.057Z,0.47
2022-11-23T05:33:12.476Z,0.48
2022-11-23T05:36:15.189Z,0.58
2022-11-23T05:39:17.497Z,0.58
2022-11-23T05:42:21.067Z,0.56
2022-11-23T05:45:24.290Z,0.58
2022-11-23T05:48:28.931Z,0.55
2022-11-23T05:51:32.872Z,0.59
2022-11-23T05:54:35.472Z,0.63
2022-11-23T05:57:42.799Z,0.46
2022-11-23T06:00:46.229Z,0.56
2022-11-23T06:03:52.284Z,0.45
2022-11-23T06:07:00.980Z,0.54
2022-11-23T06:10:09.833Z,0.53
2022-11-23T06:13:15.266Z,0.56
2022-11-23T06:16:19.543Z,0.50
2022-11-23T06:19:34.148Z,0.50
2022-11-23T06:22:37.097Z,0.55
2022-11-23T06:25:41.341Z,0.69
2022-11-23T06:29:11.975Z,0.58
2022-11-23T06:32:15.210Z,0.62
2022-11-23T06:35:17.957Z,0.58
2022-11-23T06:38:20.411Z,0.55
2022-11-23T06:41:30.941Z,0.56
2022-11-23T06:44:34.454Z,0.58
2022-11-23T06:47:36.421Z,0.68
2022-11-23T06:50:39.118Z,0.59
2022-11-23T06:53:41.585Z,0.56
2022-11-23T06:56:44.752Z,0.69
2022-11-23T06:59:47.011Z,0.60
2022-11-23T07:02:55.046Z,0.47
2022-11-23T07:05:59.170Z,0.64
2022-11-23T07:09:03.775Z,0.40
2022-11-23T07:12:29.792Z,0.56
2022-11-23T07:15:36.263Z,0.70
2022-11-23T07:18:38.155Z,0.68
2022-11-23T07:21:41.342Z,0.76
2022-11-23T07:24:46.707Z,0.62
2022-11-23T07:27:55.329Z,0.58
2022-11-23T07:30:57.861Z,0.65
2022-11-23T07:33:59.709Z,0.71
2022-11-23T07:37:03.292Z,0.65
2022-11-23T07:40:08.509Z,0.78
2022-11-23T07:43:11.178Z,0.69
2022-11-23T07:46:13.046Z,0.81
2022-11-23T07:49:14.815Z,0.89
2022-11-23T07:52:16.707Z,0.87
2022-11-23T07:55:18.609Z,0.92
2022-11-23T07:58:20.430Z,0.77
2022-11-23T08:01:22.302Z,0.92
2022-11-23T08:04:24.360Z,0.99
2022-11-23T08:07:26.148Z,0.92
2022-11-23T08:10:29.302Z,0.87
2022-11-23T08:13:32.199Z,0.89
2022-11-23T08:16:34.065Z,0.86
2022-11-23T08:19:36.101Z,0.86
2022-11-23T08:22:37.846Z,0.81
2022-11-23T08:25:39.707Z,0.70
2022-11-23T08:28:41.489Z,0.75
2022-11-23T08:31:43.901Z,0.84
2022-11-23T08:34:45.732Z,0.80
2022-11-23T08:37:47.589Z,0.89
2022-11-23T08:40:49.583Z,0.79
2022-11-23T08:43:51.696Z,0.81
2022-11-23T08:46:54.345Z,0.81
2022-11-23T08:49:56.143Z,0.74
2022-11-23T08:52:59.810Z,0.89
2022-11-23T08:56:02.893Z,0.79
2022-11-23T08:59:04.650Z,0.86
2022-11-23T09:02:06.575Z,0.90
2022-11-23T09:05:09.478Z,0.95
2022-11-23T09:08:11.305Z,0.75
2022-11-23T09:11:14.336Z,0.83
2022-11-23T09:14:16.059Z,0.80
2022-11-23T09:17:17.903Z,0.83
2022-11-23T09:20:19.685Z,0.72
2022-11-23T09:23:21.602Z,0.82
2022-11-23T09:26:23.478Z,0.88
2022-11-23T09:29:25.630Z,0.96
2022-11-23T09:32:27.825Z,1.00
2022-11-23T09:35:29.917Z,0.97
2022-11-23T09:38:55.722Z,1.02
2022-11-23T09:42:15.541Z,1.03
2022-11-23T09:45:30.547Z,0.91
2022-11-23T09:48:45.241Z,0.96
2022-11-23T09:51:48.195Z,1.06
2022-11-23T09:54:52.457Z,0.85
2022-11-23T09:57:59.865Z,0.78
2022-11-23T10:01:16.144Z,0.73
2022-11-23T10:04:20.290Z,0.74
2022-11-23T10:07:25.143Z,0.69
2022-11-23T10:10:41.558Z,0.68
2022-11-23T10:14:02.312Z,0.79
2022-11-23T10:17:22.263Z,0.62
2022-11-23T10:20:26.818Z,0.71
2022-11-23T10:24:01.052Z,0.82
2022-11-23T10:27:04.122Z,0.83
2022-11-23T10:30:12.910Z,0.86
2022-11-23T10:33:30.887Z,0.89
2022-11-23T10:36:36.067Z,0.58
2022-11-23T10:39:38.221Z,0.71
2022-11-23T10:42:47.526Z,0.70
2022-11-23T10:45:49.289Z,0.73
2022-11-23T10:48:52.788Z,0.66
2022-11-23T10:51:56.257Z,0.85
2022-11-23T10:55:00.319Z,0.76
2022-11-23T10:58:02.221Z,0.81
2022-11-23T11:01:24.979Z,0.85
2022-11-23T11:04:29.181Z,0.86
2022-11-23T11:07:31.600Z,0.97
2022-11-23T11:10:40.622Z,0.78
2022-11-23T11:13:47.844Z,0.89
2022-11-23T11:16:56.775Z,0.97
2022-11-23T11:19:59.604Z,0.99
2022-11-23T11:23:17.582Z,0.97
2022-11-23T11:26:22.876Z,0.73
2022-11-23T11:29:40.016Z,0.82
2022-11-23T11:32:54.097Z,0.88
2022-11-23T11:35:56.930Z,0.90
2022-11-23T11:39:17.551Z,0.91
2022-11-23T11:42:33.607Z,0.86
2022-11-23T11:45:54.495Z,0.97
2022-11-23T11:49:11.169Z,0.86
2022-11-23T11:52:22.274Z,0.88
2022-11-23T11:55:39.487Z,0.82
2022-11-23T11:58:50.926Z,0.88
2022-11-23T12:02:14.537Z,0.87
2022-11-23T12:05:27.379Z,0.92
2022-11-23T12:09:12.852Z,0.98
2022-11-23T12:12:18.154Z,1.04
2022-11-23T12:15:48.230Z,1.04
2022-11-23T12:19:01.210Z,1.07
2022-11-23T12:22:21.130Z,1.14
